createdAt,value
2022-08-30T00:03:03.177Z,50
2022-08-30T00:13:03.143Z,50
2022-08-30T00:23:03.045Z,50
2022-08-30T00:33:03.145Z,50
2022-08-30T00:43:05.674Z,50
2022-08-30T00:53:03.145Z,50
2022-08-30T01:03:03.320Z,50
2022-08-30T01:13:03.141Z,50
2022-08-30T01:23:03.232Z,50
2022-08-30T01:33:03.129Z,50
2022-08-30T01:43:03.244Z,50
2022-08-30T01:53:03.160Z,50
2022-08-30T02:03:03.239Z,50
2022-08-30T02:13:03.125Z,49.5
2022-08-30T02:23:03.243Z,50
2022-08-30T02:33:03.332Z,50
2022-08-30T02:43:03.237Z,50
2022-08-30T02:53:03.341Z,50
2022-08-30T03:03:03.214Z,50
2022-08-30T03:13:03.306Z,50
2022-08-30T03:23:03.223Z,50
2022-08-30T03:33:03.326Z,50
2022-08-30T03:43:03.399Z,50
2022-08-30T03:53:03.314Z,50
2022-08-30T04:03:03.417Z,50
2022-08-30T04:13:03.311Z,50
2022-08-30T04:23:03.411Z,50
2022-08-30T04:33:03.319Z,50
2022-08-30T04:43:03.410Z,50
2022-08-30T04:53:03.343Z,50.5
2022-08-30T05:03:03.438Z,50.5
2022-08-30T05:13:03.321Z,50.5
2022-08-30T05:23:03.427Z,50.5
2022-08-30T05:33:03.514Z,50.5
2022-08-30T05:43:03.433Z,50.5
2022-08-30T05:53:03.528Z,51.5
2022-08-30T06:03:03.472Z,50.5
2022-08-30T06:13:03.521Z,50.5
2022-08-30T06:23:03.425Z,50.5
2022-08-30T06:33:03.511Z,50.5
2022-08-30T06:43:03.402Z,48.5
2022-08-30T06:53:03.570Z,46
2022-08-30T07:03:03.632Z,46
2022-08-30T07:13:03.508Z,44.5
2022-08-30T07:23:03.603Z,39.5
2022-08-30T07:33:03.567Z,39
2022-08-30T07:43:03.620Z,42
2022-08-30T07:53:04.025Z,38.5
2022-08-30T08:03:03.666Z,38.5
2022-08-30T08:13:03.511Z,38
2022-08-30T08:23:03.609Z,41
2022-08-30T08:33:03.519Z,40.5
2022-08-30T08:43:03.612Z,39
2022-08-30T08:53:03.719Z,40
2022-08-30T09:03:03.613Z,38.5
2022-08-30T09:13:03.744Z,38.5
2022-08-30T09:23:03.761Z,38.5
2022-08-30T09:33:03.781Z,39
2022-08-30T09:43:03.807Z,38
2022-08-30T09:53:03.655Z,37.5
2022-08-30T10:03:03.744Z,41
2022-08-30T10:13:03.718Z,46
2022-08-30T10:23:03.738Z,46
2022-08-30T10:33:03.637Z,47
2022-08-30T10:43:03.767Z,46.5
2022-08-30T10:53:03.856Z,44.5
2022-08-30T11:03:03.770Z,46
2022-08-30T11:13:03.881Z,45
2022-08-30T11:23:03.742Z,44.5
2022-08-30T11:33:07.888Z,44.5
2022-08-30T11:43:04.494Z,44.5
2022-08-30T11:53:04.480Z,44.5
2022-08-30T12:03:04.650Z,45
2022-08-30T12:13:04.641Z,44
2022-08-30T12:23:04.635Z,44.5
2022-08-30T12:33:04.120Z,44.5
2022-08-30T12:43:04.505Z,44.5
2022-08-30T12:53:04.800Z,44.5
2022-08-30T13:03:14.802Z,44
2022-08-30T13:13:03.819Z,44
2022-08-30T13:23:04.787Z,44
2022-08-30T13:33:04.543Z,44
2022-08-30T13:43:03.889Z,44.5
2022-08-30T13:53:05.107Z,44.5
2022-08-30T14:03:04.079Z,44
2022-08-30T14:13:08.741Z,44
2022-08-30T14:23:04.497Z,44
2022-08-30T14:33:04.218Z,44
2022-08-30T14:43:03.878Z,44
2022-08-30T14:53:03.983Z,44
2022-08-30T15:03:04.088Z,44
2022-08-30T15:13:04.818Z,44
2022-08-30T15:23:04.076Z,44
2022-08-30T15:33:03.974Z,44
2022-08-30T15:43:04.107Z,44
2022-08-30T15:53:03.966Z,44
2022-08-30T16:03:04.064Z,44
2022-08-30T16:13:03.954Z,44
2022-08-30T16:23:04.903Z,44
2022-08-30T16:33:04.298Z,44
2022-08-30T16:43:04.492Z,44
2022-08-30T16:53:04.155Z,44
2022-08-30T17:03:04.106Z,45.5
2022-08-30T17:13:04.262Z,44.5
2022-08-30T17:23:04.043Z,44.5
2022-08-30T17:33:04.154Z,44.5
2022-08-30T17:43:04.243Z,44.5
2022-08-30T17:53:04.146Z,46
2022-08-30T18:03:04.300Z,46
2022-08-30T18:13:04.166Z,46
2022-08-30T18:23:04.269Z,46
2022-08-30T18:33:04.160Z,46
2022-08-30T18:43:04.260Z,48
2022-08-30T18:53:04.164Z,48
2022-08-30T19:03:04.297Z,48
2022-08-30T19:13:04.215Z,48
2022-08-30T19:23:09.352Z,48
2022-08-30T19:33:04.177Z,48
2022-08-30T19:43:09.919Z,48
2022-08-30T19:53:04.380Z,48
2022-08-30T20:03:04.390Z,48
2022-08-30T20:13:04.376Z,48
2022-08-30T20:23:04.267Z,48
2022-08-30T20:33:08.387Z,48
2022-08-30T20:43:04.266Z,48
2022-08-30T20:53:04.372Z,48
2022-08-30T21:03:04.345Z,50
2022-08-30T21:13:04.361Z,50
2022-08-30T21:23:04.450Z,50
2022-08-30T21:33:04.378Z,50
2022-08-30T21:43:05.905Z,50
2022-08-30T21:53:04.361Z,50
2022-08-30T22:03:04.582Z,50
2022-08-30T22:13:04.374Z,50
2022-08-30T22:23:04.461Z,50
2022-08-30T22:33:04.361Z,50
2022-08-30T22:43:04.449Z,50
2022-08-30T22:53:04.806Z,50
2022-08-30T23:03:04.447Z,50
2022-08-30T23:13:04.554Z,50
2022-08-30T23:23:04.449Z,50
2022-08-30T23:33:04.548Z,50
2022-08-30T23:43:04.447Z,50
2022-08-30T23:53:04.540Z,50
